createdAt,value
2023-01-01T00:01:25.899Z,68.47
2023-01-01T00:03:56.411Z,53.07
2023-01-01T00:06:27.736Z,55.13
2023-01-01T00:09:10.515Z,65.83
2023-01-01T00:11:39.804Z,33.70
2023-01-01T00:14:12.478Z,46.03
2023-01-01T00:16:42.316Z,28.20
2023-01-01T00:19:11.283Z,17.43
2023-01-01T00:21:41.880Z,17.80
2023-01-01T00:24:11.195Z,20.23
2023-01-01T00:26:40.229Z,21.20
2023-01-01T00:29:09.317Z,17.10
2023-01-01T00:31:38.379Z,15.00
2023-01-01T00:34:07.377Z,11.30
2023-01-01T00:36:36.317Z,15.80
2023-01-01T00:39:06.932Z,14.47
2023-01-01T00:41:36.017Z,15.83
2023-01-01T00:44:04.883Z,13.83
2023-01-01T00:46:33.971Z,28.40
2023-01-01T00:49:02.986Z,12.70
2023-01-01T00:51:36.903Z,10.93
2023-01-01T00:54:07.811Z,11.13
2023-01-01T00:56:36.694Z,6.97
2023-01-01T00:59:05.934Z,8.97
2023-01-01T01:01:35.141Z,9.93
2023-01-01T01:04:05.082Z,7.53
2023-01-01T01:06:34.236Z,12.00
2023-01-01T01:09:03.440Z,15.17
2023-01-01T01:11:33.748Z,10.67
2023-01-01T01:14:02.704Z,10.20
2023-01-01T01:16:33.448Z,7.23
2023-01-01T01:19:05.453Z,13.03
2023-01-01T01:21:35.748Z,10.67
2023-01-01T01:24:05.598Z,4.93
2023-01-01T01:26:36.914Z,7.27
2023-01-01T01:29:06.204Z,13.73
2023-01-01T01:31:36.050Z,11.27
2023-01-01T01:34:06.124Z,7.27
2023-01-01T01:36:35.123Z,11.70
2023-01-01T01:39:04.265Z,15.53
2023-01-01T01:41:34.587Z,7.40
2023-01-01T01:44:05.745Z,7.70
2023-01-01T01:46:38.976Z,12.60
2023-01-01T01:49:16.495Z,6.63
2023-01-01T01:51:46.796Z,8.37
2023-01-01T01:54:23.775Z,8.37
2023-01-01T01:56:57.975Z,10.10
2023-01-01T01:59:31.531Z,7.37
2023-01-01T02:02:01.641Z,8.33
2023-01-01T02:04:30.963Z,10.60
2023-01-01T02:07:00.024Z,11.23
2023-01-01T02:09:29.255Z,6.07
2023-01-01T02:12:01.035Z,8.43
2023-01-01T02:14:30.096Z,9.90
2023-01-01T02:17:04.787Z,9.23
2023-01-01T02:19:45.367Z,10.27
2023-01-01T02:22:19.029Z,10.50
2023-01-01T02:25:10.660Z,9.20
2023-01-01T02:27:51.911Z,12.03
2023-01-01T02:30:23.169Z,7.50
2023-01-01T02:32:56.044Z,7.67
2023-01-01T02:35:35.614Z,8.30
2023-01-01T02:38:11.267Z,7.83
2023-01-01T02:40:45.533Z,9.80
2023-01-01T02:43:14.744Z,6.43
2023-01-01T02:45:46.494Z,5.53
2023-01-01T02:48:40.938Z,9.90
2023-01-01T02:51:20.532Z,8.57
2023-01-01T02:54:00.942Z,7.63
2023-01-01T02:56:47.000Z,12.43
2023-01-01T02:59:40.126Z,8.10
2023-01-01T03:02:23.557Z,9.83
2023-01-01T03:05:05.101Z,7.30
2023-01-01T03:07:42.513Z,8.93
2023-01-01T03:10:39.274Z,9.93
2023-01-01T03:13:16.859Z,8.30
2023-01-01T03:15:52.305Z,10.90
2023-01-01T03:18:28.516Z,17.00
2023-01-01T03:20:59.811Z,10.67
2023-01-01T03:23:36.819Z,8.57
2023-01-01T03:26:10.701Z,10.13
2023-01-01T03:28:46.419Z,7.67
2023-01-01T03:31:20.309Z,5.60
2023-01-01T03:33:55.599Z,12.80
2023-01-01T03:36:29.639Z,7.77
2023-01-01T03:39:02.815Z,10.03
2023-01-01T03:41:37.562Z,10.93
2023-01-01T03:44:12.914Z,9.73
2023-01-01T03:46:43.460Z,15.30
2023-01-01T03:49:15.886Z,6.77
2023-01-01T03:52:08.403Z,7.30
2023-01-01T03:54:47.388Z,10.60
2023-01-01T03:57:26.088Z,10.17
2023-01-01T04:00:03.789Z,14.37
2023-01-01T04:02:46.402Z,12.10
2023-01-01T04:05:18.827Z,8.00
2023-01-01T04:10:19.780Z,10.30
2023-01-01T04:12:50.619Z,11.20
2023-01-01T04:15:20.946Z,9.17
2023-01-01T04:17:52.972Z,10.60
2023-01-01T04:20:23.730Z,8.50
2023-01-01T04:22:52.862Z,12.60
2023-01-01T04:25:27.217Z,9.80
2023-01-01T04:27:58.334Z,7.07
2023-01-01T04:33:01.918Z,10.10
2023-01-01T04:35:32.158Z,7.17
2023-01-01T04:38:03.915Z,10.17
2023-01-01T04:40:33.868Z,11.40
2023-01-01T04:43:12.197Z,7.90
2023-01-01T04:45:42.225Z,8.20
2023-01-01T04:48:12.789Z,6.30
2023-01-01T04:50:43.676Z,4.43
2023-01-01T04:53:12.892Z,7.37
2023-01-01T04:55:42.192Z,6.90
2023-01-01T05:01:27.976Z,11.27
2023-01-01T05:04:20.993Z,7.70
2023-01-01T05:07:52.053Z,7.43
2023-01-01T05:12:23.759Z,7.50
2023-01-01T05:15:29.437Z,8.07
2023-01-01T05:21:52.882Z,13.90
2023-01-01T05:24:27.911Z,5.43
2023-01-01T05:26:57.798Z,10.50
2023-01-01T05:29:28.982Z,10.53
2023-01-01T05:31:59.039Z,10.10
2023-01-01T05:37:01.950Z,10.50
2023-01-01T05:39:33.710Z,7.70
2023-01-01T05:42:02.991Z,5.67
2023-01-01T05:44:33.186Z,8.23
2023-01-01T05:47:02.615Z,8.63
2023-01-01T05:49:32.844Z,13.23
2023-01-01T05:52:05.261Z,9.30
2023-01-01T05:54:39.035Z,5.10
2023-01-01T05:57:11.947Z,6.63
2023-01-01T05:59:51.839Z,6.70
2023-01-01T06:02:21.917Z,6.60
2023-01-01T06:04:51.644Z,8.87
2023-01-01T06:08:06.592Z,5.37
2023-01-01T06:10:40.057Z,10.23
2023-01-01T06:13:13.370Z,6.80
2023-01-01T06:15:46.943Z,6.47
2023-01-01T06:18:16.838Z,9.17
2023-01-01T06:24:33.915Z,6.33
2023-01-01T06:27:12.201Z,5.93
2023-01-01T06:29:46.795Z,7.03
2023-01-01T06:32:19.378Z,5.63
2023-01-01T06:34:51.576Z,8.77
2023-01-01T06:37:22.207Z,10.63
2023-01-01T06:39:54.871Z,10.10
2023-01-01T06:42:33.572Z,8.93
2023-01-01T06:45:10.039Z,6.63
2023-01-01T06:47:41.479Z,6.87
2023-01-01T06:50:14.390Z,7.80
2023-01-01T06:52:47.426Z,12.37
2023-01-01T06:55:18.138Z,9.40
2023-01-01T06:58:00.256Z,9.70
2023-01-01T07:00:33.139Z,18.90
2023-01-01T07:03:04.118Z,15.37
2023-01-01T07:05:37.721Z,7.90
2023-01-01T07:08:10.775Z,11.40
2023-01-01T07:10:42.525Z,8.40
2023-01-01T07:13:15.551Z,10.00
2023-01-01T07:15:46.902Z,6.37
2023-01-01T07:18:16.614Z,7.97
2023-01-01T07:20:53.856Z,6.43
2023-01-01T07:23:24.181Z,6.30
2023-01-01T07:25:55.304Z,6.90
2023-01-01T07:28:28.559Z,6.63
2023-01-01T07:30:58.803Z,9.20
2023-01-01T07:33:29.681Z,12.07
2023-01-01T07:36:03.998Z,4.83
2023-01-01T07:38:34.062Z,6.80
2023-01-01T07:41:04.176Z,10.37
2023-01-01T07:43:37.023Z,8.80
2023-01-01T07:46:08.127Z,6.40
2023-01-01T07:48:40.277Z,5.20
2023-01-01T07:51:10.552Z,8.77
2023-01-01T07:53:40.177Z,6.47
2023-01-01T07:56:11.014Z,10.40
2023-01-01T07:58:46.739Z,4.67
2023-01-01T08:01:17.279Z,7.30
2023-01-01T08:03:55.865Z,5.37
2023-01-01T08:06:27.366Z,7.27
2023-01-01T08:09:23.505Z,8.70
2023-01-01T08:11:54.376Z,4.83
2023-01-01T08:14:29.568Z,5.10
2023-01-01T08:17:00.725Z,6.40
2023-01-01T08:19:32.369Z,8.93
2023-01-01T08:22:03.522Z,6.53
2023-01-01T08:24:35.411Z,12.73
2023-01-01T08:27:07.275Z,5.90
2023-01-01T08:29:40.021Z,6.67
2023-01-01T08:32:17.767Z,9.00
2023-01-01T08:34:49.633Z,11.40
2023-01-01T08:37:21.475Z,7.00
2023-01-01T08:39:52.401Z,6.23
2023-01-01T08:42:25.553Z,7.90
2023-01-01T08:44:58.373Z,7.73
2023-01-01T08:47:29.325Z,6.67
2023-01-01T08:50:00.163Z,7.63
2023-01-01T08:52:31.879Z,8.30
2023-01-01T08:55:02.727Z,5.13
2023-01-01T08:57:33.876Z,8.83
2023-01-01T09:00:06.431Z,5.70
2023-01-01T09:02:38.332Z,8.30
2023-01-01T09:05:11.145Z,9.20
2023-01-01T09:07:44.377Z,13.17
2023-01-01T09:10:16.785Z,8.50
2023-01-01T09:12:49.715Z,6.90
2023-01-01T09:15:22.396Z,9.90
2023-01-01T09:17:54.195Z,5.70
2023-01-01T09:20:36.451Z,7.90
2023-01-01T09:23:07.852Z,6.50
2023-01-01T09:25:38.683Z,8.90
2023-01-01T09:28:25.129Z,8.73
2023-01-01T09:30:58.669Z,6.47
2023-01-01T09:33:32.228Z,5.57
2023-01-01T09:36:29.979Z,8.50
2023-01-01T09:39:01.319Z,4.93
2023-01-01T09:42:03.978Z,6.87
2023-01-01T09:44:54.688Z,6.70
2023-01-01T09:47:34.722Z,6.10
2023-01-01T09:50:10.198Z,9.60
2023-01-01T09:52:46.705Z,7.20
2023-01-01T09:55:26.409Z,9.13
2023-01-01T09:57:57.754Z,6.47
2023-01-01T10:00:28.686Z,8.47
2023-01-01T10:03:14.898Z,9.67
2023-01-01T10:05:56.453Z,6.20
2023-01-01T10:08:51.198Z,9.70
2023-01-01T10:11:27.463Z,5.50
2023-01-01T10:14:00.082Z,5.40
2023-01-01T10:16:39.680Z,8.27
2023-01-01T10:19:24.888Z,7.70
2023-01-01T10:21:59.499Z,5.20
2023-01-01T10:24:45.070Z,7.77
2023-01-01T10:27:29.384Z,7.13
2023-01-01T10:30:04.609Z,5.63
2023-01-01T10:32:39.560Z,5.60
2023-01-01T10:35:16.724Z,6.37
2023-01-01T10:37:46.253Z,6.47
2023-01-01T10:40:21.000Z,6.23
2023-01-01T10:42:51.685Z,4.27
2023-01-01T10:45:24.874Z,5.23
2023-01-01T10:48:14.759Z,4.27
2023-01-01T10:50:47.676Z,7.40
2023-01-01T10:53:29.245Z,4.40
2023-01-01T10:56:04.236Z,7.40
2023-01-01T10:58:42.756Z,3.90
2023-01-01T11:01:14.356Z,10.60
2023-01-01T11:04:01.439Z,5.37
2023-01-01T11:06:35.408Z,8.13
2023-01-01T11:09:08.131Z,6.63
2023-01-01T11:11:44.282Z,10.43
2023-01-01T11:14:23.207Z,4.80
2023-01-01T11:16:52.623Z,5.00
2023-01-01T11:19:25.527Z,3.50
2023-01-01T11:21:56.047Z,4.60
2023-01-01T11:24:27.028Z,8.40
2023-01-01T11:27:13.361Z,6.73
2023-01-01T11:29:42.345Z,3.80
2023-01-01T11:32:14.428Z,5.23
2023-01-01T11:34:45.913Z,5.10
2023-01-01T11:37:26.772Z,7.10
2023-01-01T11:39:58.851Z,6.07
2023-01-01T11:42:30.183Z,5.13
2023-01-01T11:45:02.018Z,6.53
2023-01-01T11:47:35.876Z,5.50
2023-01-01T11:50:16.109Z,8.37
2023-01-01T11:52:49.071Z,3.00
2023-01-01T11:55:27.309Z,5.50
2023-01-01T11:58:02.717Z,7.77
2023-01-01T12:00:37.006Z,8.10
2023-01-01T12:03:18.977Z,3.90
2023-01-01T12:05:52.906Z,8.60
2023-01-01T12:08:34.603Z,3.47
2023-01-01T12:11:12.930Z,5.70
2023-01-01T12:13:50.932Z,5.77
2023-01-01T12:16:25.395Z,7.23
2023-01-01T12:19:03.292Z,8.13
2023-01-01T12:21:34.523Z,8.30
2023-01-01T12:24:06.676Z,5.60
2023-01-01T12:26:51.823Z,4.67
2023-01-01T12:29:41.275Z,3.90
2023-01-01T12:32:22.354Z,3.83
2023-01-01T12:35:01.195Z,5.20
2023-01-01T12:37:40.865Z,5.40
2023-01-01T12:40:39.147Z,7.73
2023-01-01T12:43:12.121Z,5.33
2023-01-01T12:46:13.484Z,7.13
2023-01-01T12:49:07.195Z,6.40
2023-01-01T12:51:45.895Z,6.43
2023-01-01T12:54:53.296Z,8.30
2023-01-01T12:57:31.544Z,5.10
2023-01-01T13:00:04.042Z,4.20
2023-01-01T13:02:37.181Z,6.93
2023-01-01T13:05:16.495Z,7.37
2023-01-01T13:07:49.856Z,3.80
2023-01-01T13:10:27.904Z,5.90
2023-01-01T13:12:58.702Z,5.23
2023-01-01T13:15:44.807Z,6.73
2023-01-01T13:18:23.736Z,9.23
2023-01-01T13:21:25.867Z,6.40
2023-01-01T13:23:59.295Z,5.63
2023-01-01T13:26:37.376Z,5.47
2023-01-01T13:29:44.733Z,8.53
2023-01-01T13:32:15.141Z,13.00
2023-01-01T13:35:16.285Z,4.83
2023-01-01T13:37:51.244Z,5.20
2023-01-01T13:40:52.868Z,9.20
2023-01-01T13:43:30.350Z,5.23
2023-01-01T13:46:13.051Z,4.53
2023-01-01T13:49:19.482Z,5.30
2023-01-01T13:52:30.987Z,5.97
2023-01-01T13:55:35.381Z,16.13
2023-01-01T13:58:36.717Z,5.97
2023-01-01T14:01:30.472Z,10.90
2023-01-01T14:04:01.826Z,6.57
2023-01-01T14:06:36.138Z,7.13
2023-01-01T14:09:08.702Z,6.77
2023-01-01T14:11:37.603Z,10.43
2023-01-01T14:14:24.301Z,4.70
2023-01-01T14:16:58.165Z,10.73
2023-01-01T14:19:28.332Z,9.17
2023-01-01T14:21:57.799Z,9.30
2023-01-01T14:24:28.142Z,7.70
2023-01-01T14:26:57.675Z,11.63
2023-01-01T14:29:30.434Z,11.60
2023-01-01T14:32:02.498Z,14.20
2023-01-01T14:34:33.664Z,11.40
2023-01-01T14:37:04.819Z,14.90
2023-01-01T14:39:35.012Z,10.60
2023-01-01T14:42:07.437Z,8.40
2023-01-01T14:44:39.238Z,11.93
2023-01-01T14:47:24.765Z,12.00
2023-01-01T14:49:54.848Z,11.70
2023-01-01T14:52:26.106Z,4.13
2023-01-01T14:54:57.508Z,8.07
2023-01-01T14:57:30.169Z,5.47
2023-01-01T14:59:59.365Z,8.90
2023-01-01T15:02:31.834Z,10.73
2023-01-01T15:05:16.177Z,8.93
2023-01-01T15:07:45.205Z,5.07
2023-01-01T15:10:14.794Z,11.60
2023-01-01T15:12:43.858Z,10.67
2023-01-01T15:15:43.676Z,8.53
2023-01-01T15:18:39.803Z,9.20
2023-01-01T15:21:17.025Z,8.10
2023-01-01T15:23:56.647Z,10.77
2023-01-01T15:26:31.290Z,8.93
2023-01-01T15:29:01.182Z,8.03
2023-01-01T15:31:41.742Z,12.00
2023-01-01T15:34:22.950Z,8.07
2023-01-01T15:36:53.143Z,11.93
2023-01-01T15:39:22.647Z,7.13
2023-01-01T15:41:53.182Z,7.53
2023-01-01T15:44:30.224Z,9.03
2023-01-01T15:47:07.602Z,9.33
2023-01-01T15:49:37.878Z,17.23
2023-01-01T15:52:15.292Z,6.50
2023-01-01T15:54:48.385Z,6.93
2023-01-01T15:57:22.528Z,9.80
2023-01-01T15:59:53.881Z,4.37
2023-01-01T16:02:29.223Z,11.10
2023-01-01T16:05:01.181Z,6.03
2023-01-01T16:07:30.334Z,8.87
2023-01-01T16:09:59.164Z,5.67
2023-01-01T16:12:29.905Z,9.20
2023-01-01T16:14:58.781Z,9.47
2023-01-01T16:17:27.797Z,4.60
2023-01-01T16:19:56.637Z,5.87
2023-01-01T16:22:30.576Z,6.23
2023-01-01T16:25:03.363Z,9.40
2023-01-01T16:27:32.414Z,6.67
2023-01-01T16:30:01.338Z,6.07
2023-01-01T16:32:30.350Z,10.13
2023-01-01T16:34:59.323Z,11.70
2023-01-01T16:37:30.777Z,11.97
2023-01-01T16:40:01.134Z,10.37
2023-01-01T16:42:30.012Z,7.10
2023-01-01T16:44:59.041Z,12.27
2023-01-01T16:47:27.969Z,12.50
2023-01-01T16:49:56.849Z,11.57
2023-01-01T16:52:29.967Z,12.73
2023-01-01T16:55:03.319Z,12.33
2023-01-01T16:57:33.601Z,8.77
2023-01-01T17:00:02.546Z,11.63
2023-01-01T17:02:31.751Z,12.57
2023-01-01T17:05:00.696Z,20.83
2023-01-01T17:07:29.558Z,18.20
2023-01-01T17:09:58.493Z,12.40
2023-01-01T17:12:28.976Z,11.43
2023-01-01T17:14:58.013Z,15.00
2023-01-01T17:17:28.585Z,15.03
2023-01-01T17:19:57.534Z,17.20
2023-01-01T17:22:30.671Z,18.20
2023-01-01T17:25:03.024Z,16.53
2023-01-01T17:27:33.294Z,15.37
2023-01-01T17:30:02.539Z,14.87
2023-01-01T17:32:34.617Z,13.57
2023-01-01T17:35:03.571Z,15.03
2023-01-01T17:37:33.043Z,21.40
2023-01-01T17:40:02.142Z,13.53
2023-01-01T17:42:32.689Z,11.10
2023-01-01T17:45:01.579Z,13.30
2023-01-01T17:47:33.083Z,13.67
2023-01-01T17:50:02.585Z,16.70
2023-01-01T17:52:31.669Z,19.37
2023-01-01T17:55:00.496Z,18.20
2023-01-01T17:57:30.058Z,14.20
2023-01-01T18:00:01.677Z,13.77
2023-01-01T18:02:31.031Z,21.60
2023-01-01T18:05:00.102Z,18.27
2023-01-01T18:07:29.079Z,25.17
2023-01-01T18:09:58.015Z,16.47
2023-01-01T18:12:27.021Z,22.13
2023-01-01T18:14:55.969Z,23.33
2023-01-01T18:17:26.275Z,25.17
2023-01-01T18:19:55.152Z,18.97
2023-01-01T18:22:24.091Z,21.73
2023-01-01T18:24:52.989Z,21.73
2023-01-01T18:27:21.899Z,17.80
2023-01-01T18:29:50.853Z,28.03
2023-01-01T18:32:19.774Z,22.90
2023-01-01T18:34:51.306Z,22.07
2023-01-01T18:37:20.318Z,30.27
2023-01-01T18:39:49.584Z,23.77
2023-01-01T18:42:40.005Z,26.77
2023-01-01T18:45:17.661Z,24.50
2023-01-01T18:47:47.251Z,30.37
2023-01-01T18:50:23.860Z,30.53
2023-01-01T18:52:57.120Z,29.67
2023-01-01T18:55:28.123Z,26.93
2023-01-01T18:58:01.458Z,28.00
2023-01-01T19:00:33.236Z,27.60
2023-01-01T19:03:03.950Z,31.50
2023-01-01T19:05:36.769Z,23.90
2023-01-01T19:08:15.760Z,19.90
2023-01-01T19:10:49.885Z,17.53
2023-01-01T19:13:23.808Z,21.07
2023-01-01T19:15:56.074Z,15.80
2023-01-01T19:18:27.100Z,18.90
2023-01-01T19:21:02.476Z,29.10
2023-01-01T19:23:32.540Z,15.90
2023-01-01T19:26:04.901Z,24.33
2023-01-01T19:28:36.380Z,15.87
2023-01-01T19:31:07.461Z,11.70
2023-01-01T19:33:36.408Z,14.00
2023-01-01T19:36:07.210Z,17.00
2023-01-01T19:38:36.155Z,11.10
2023-01-01T19:41:05.143Z,18.33
2023-01-01T19:43:34.014Z,13.00
2023-01-01T19:46:03.123Z,12.27
2023-01-01T19:48:31.991Z,12.50
2023-01-01T19:51:00.942Z,22.50
2023-01-01T19:53:31.243Z,11.07
2023-01-01T19:56:00.265Z,11.30
2023-01-01T19:58:29.181Z,11.20
2023-01-01T20:00:58.146Z,13.63
2023-01-01T20:03:52.807Z,20.20
2023-01-01T20:06:16.034Z,13.23
2023-01-01T20:08:46.347Z,15.20
2023-01-01T20:11:16.346Z,15.30
2023-01-01T20:13:45.281Z,9.90
2023-01-01T20:16:14.231Z,15.10
2023-01-01T20:18:43.226Z,10.57
2023-01-01T20:21:29.565Z,17.83
2023-01-01T20:24:00.677Z,13.53
2023-01-01T20:26:29.733Z,19.57
2023-01-01T20:29:15.990Z,9.70
2023-01-01T20:31:45.048Z,7.70
2023-01-01T20:34:14.150Z,6.33
2023-01-01T20:37:00.723Z,10.03
2023-01-01T20:39:31.226Z,6.80
2023-01-01T20:42:00.225Z,12.00
2023-01-01T20:44:29.579Z,8.47
2023-01-01T20:46:58.546Z,7.97
2023-01-01T20:49:27.494Z,6.00
2023-01-01T20:51:56.579Z,12.07
2023-01-01T20:54:25.517Z,7.43
2023-01-01T20:56:55.822Z,6.53
2023-01-01T20:59:35.247Z,7.50
2023-01-01T21:02:05.517Z,6.40
2023-01-01T21:04:38.796Z,15.70
2023-01-01T21:07:09.844Z,8.43
2023-01-01T21:09:39.886Z,8.83
2023-01-01T21:12:11.797Z,8.53
2023-01-01T21:14:40.676Z,6.13
2023-01-01T21:17:21.259Z,5.20
2023-01-01T21:19:51.807Z,11.73
2023-01-01T21:22:20.859Z,5.90
2023-01-01T21:24:54.372Z,8.53
2023-01-01T21:27:31.611Z,5.13
2023-01-01T21:30:01.681Z,12.53
2023-01-01T21:32:39.098Z,11.80
2023-01-01T21:35:19.140Z,5.73
2023-01-01T21:37:50.764Z,7.07
2023-01-01T21:40:36.140Z,10.73
2023-01-01T21:43:32.935Z,8.63
2023-01-01T21:46:19.127Z,9.77
2023-01-01T21:48:56.691Z,5.80
2023-01-01T21:51:27.696Z,7.97
2023-01-01T21:54:13.702Z,11.23
2023-01-01T21:56:44.261Z,10.27
2023-01-01T21:59:27.293Z,9.93
2023-01-01T22:01:59.303Z,9.00
2023-01-01T22:04:35.204Z,9.13
2023-01-01T22:07:56.631Z,6.93
2023-01-01T22:10:16.764Z,10.53
2023-01-01T22:12:46.145Z,7.97
2023-01-01T22:15:31.104Z,8.80
2023-01-01T22:18:25.770Z,12.20
2023-01-01T22:20:55.160Z,8.43
2023-01-01T22:23:36.394Z,8.13
2023-01-01T22:26:22.635Z,7.30
2023-01-01T22:28:56.097Z,11.10
2023-01-01T22:31:30.819Z,7.93
2023-01-01T22:34:03.572Z,8.10
2023-01-01T22:36:35.458Z,8.00
2023-01-01T22:39:10.754Z,9.20
2023-01-01T22:41:40.338Z,20.23
2023-01-01T22:44:11.344Z,20.80
2023-01-01T22:46:42.897Z,6.47
2023-01-01T22:49:19.933Z,10.93
2023-01-01T22:51:51.489Z,8.60
2023-01-01T22:54:20.962Z,11.73
2023-01-01T22:56:50.205Z,8.63
2023-01-01T22:59:19.095Z,7.73
2023-01-01T23:01:49.592Z,12.03
2023-01-01T23:04:18.707Z,8.23
2023-01-01T23:06:47.847Z,8.53
2023-01-01T23:09:17.013Z,16.60
2023-01-01T23:11:46.094Z,12.60
2023-01-01T23:14:38.477Z,7.27
2023-01-01T23:17:09.643Z,7.37
2023-01-01T23:19:38.664Z,7.83
2023-01-01T23:22:07.674Z,11.53
2023-01-01T23:24:37.021Z,10.80
2023-01-01T23:27:06.277Z,12.57
2023-01-01T23:29:38.698Z,14.40
2023-01-01T23:32:09.141Z,9.77
2023-01-01T23:34:38.352Z,10.73
2023-01-01T23:37:08.061Z,14.00
2023-01-01T23:39:37.339Z,13.70
2023-01-01T23:42:06.325Z,13.90
2023-01-01T23:44:35.252Z,6.30
2023-01-01T23:47:04.720Z,10.37
2023-01-01T23:49:35.876Z,12.83
2023-01-01T23:52:05.432Z,12.50
2023-01-01T23:54:34.312Z,10.07
2023-01-01T23:57:03.307Z,10.30
2023-01-01T23:59:32.266Z,8.40
